AUA555 LOWW-LIRF
Flight info
| Callsign | AUA555 |
|---|---|
| Flight time | N/A |
| Altitude | 30000 |
| Route | RUPET DCT GRZ DCT RADLY/N0453F360 DCT PENEP/N0452F350 DCT ROSKA DCT AGOMO DCT GAVRA/N0381F190 Y345 RITEB |
| Aircraft | A321/M-SDE3FGHIRWY/LB1 |
Departure
| Time | 2026-05-06 13:23 |
|---|---|
| Airport | Vienna International Airport (LOWW) |
Arrival
| Time | N/A |
|---|---|
| Airport | Rome–Fiumicino Leonardo da Vinci International Airport (LIRF) |
| Time | Latitude | Longitude | Altitude | Speed | Heading |
|---|---|---|---|---|---|
| 2026-05-06 13:12 | 48.11575 | 16.57220 | 626 ft | 0 kts | 26° |
| 2026-05-06 13:19 | 48.11590 | 16.57231 | 620 ft | 7 kts | 26° |
| 2026-05-06 13:19 | 48.11617 | 16.57306 | 619 ft | 12 kts | 87° |
| 2026-05-06 13:20 | 48.11584 | 16.57429 | 620 ft | 13 kts | 114° |
| 2026-05-06 13:20 | 48.11588 | 16.57540 | 613 ft | 11 kts | 37° |
| 2026-05-06 13:20 | 48.11682 | 16.57525 | 621 ft | 17 kts | 345° |
| 2026-05-06 13:20 | 48.11792 | 16.57480 | 613 ft | 16 kts | 345° |
| 2026-05-06 13:21 | 48.11893 | 16.57438 | 624 ft | 15 kts | 344° |
| 2026-05-06 13:21 | 48.11987 | 16.57413 | 610 ft | 13 kts | 19° |
| 2026-05-06 13:21 | 48.11996 | 16.57561 | 610 ft | 19 kts | 107° |
| 2026-05-06 13:21 | 48.11965 | 16.57753 | 610 ft | 19 kts | 104° |
| 2026-05-06 13:22 | 48.11871 | 16.57861 | 614 ft | 22 kts | 166° |
| 2026-05-06 13:22 | 48.11538 | 16.58002 | 615 ft | 81 kts | 164° |
| 2026-05-06 13:22 | 48.10825 | 16.58304 | 614 ft | 130 kts | 164° |
| 2026-05-06 13:22 | 48.09845 | 16.58729 | 809 ft | 151 kts | 163° |
| 2026-05-06 13:23 | 48.08873 | 16.59181 | 1434 ft | 146 kts | 168° |
| 2026-05-06 13:23 | 48.07884 | 16.59589 | 1926 ft | 152 kts | 169° |
| 2026-05-06 13:23 | 48.06801 | 16.60008 | 2148 ft | 173 kts | 172° |
| 2026-05-06 13:23 | 48.05591 | 16.59748 | 2302 ft | 192 kts | 210° |
| 2026-05-06 13:24 | 48.04496 | 16.58372 | 2463 ft | 218 kts | 224° |
| 2026-05-06 13:24 | 48.03416 | 16.56616 | 2865 ft | 237 kts | 225° |
| 2026-05-06 13:24 | 48.02314 | 16.54750 | 3595 ft | 242 kts | 226° |
| 2026-05-06 13:24 | 48.01179 | 16.52857 | 4380 ft | 246 kts | 225° |
| 2026-05-06 13:25 | 48.00018 | 16.50968 | 5194 ft | 248 kts | 225° |
| 2026-05-06 13:25 | 47.98829 | 16.49076 | 5974 ft | 250 kts | 224° |
| 2026-05-06 13:25 | 47.97621 | 16.47187 | 6706 ft | 254 kts | 224° |
| 2026-05-06 13:25 | 47.96442 | 16.45209 | 7457 ft | 258 kts | 233° |
| 2026-05-06 13:26 | 47.95661 | 16.42778 | 8190 ft | 264 kts | 251° |
| 2026-05-06 13:26 | 47.95192 | 16.40113 | 8913 ft | 267 kts | 252° |
| 2026-05-06 13:26 | 47.94715 | 16.37426 | 9653 ft | 270 kts | 252° |
| 2026-05-06 13:26 | 47.94223 | 16.34683 | 10136 ft | 281 kts | 252° |
| 2026-05-06 13:27 | 47.93692 | 16.31760 | 10270 ft | 303 kts | 252° |
| 2026-05-06 13:27 | 47.93121 | 16.28627 | 10406 ft | 324 kts | 252° |
| 2026-05-06 13:27 | 47.92514 | 16.25294 | 10578 ft | 341 kts | 252° |
| 2026-05-06 13:27 | 47.91889 | 16.21843 | 11071 ft | 346 kts | 253° |
| 2026-05-06 13:28 | 47.91261 | 16.18361 | 11640 ft | 350 kts | 252° |
| 2026-05-06 13:28 | 47.90635 | 16.14897 | 12240 ft | 352 kts | 252° |
| 2026-05-06 13:28 | 47.89991 | 16.11368 | 12838 ft | 354 kts | 252° |
| 2026-05-06 13:28 | 47.89335 | 16.07805 | 13370 ft | 359 kts | 252° |
| 2026-05-06 13:29 | 47.88670 | 16.04206 | 13836 ft | 362 kts | 251° |
| 2026-05-06 13:29 | 47.87715 | 16.00739 | 14323 ft | 362 kts | 239° |
| 2026-05-06 13:29 | 47.86268 | 15.97678 | 14829 ft | 363 kts | 228° |
| 2026-05-06 13:29 | 47.84382 | 15.95163 | 15247 ft | 367 kts | 216° |
| 2026-05-06 13:30 | 47.82137 | 15.93341 | 15685 ft | 370 kts | 203° |
| 2026-05-06 13:30 | 47.79716 | 15.91971 | 16099 ft | 374 kts | 202° |
| 2026-05-06 13:30 | 47.77281 | 15.90596 | 16568 ft | 375 kts | 202° |
| 2026-05-06 13:30 | 47.74842 | 15.89214 | 17030 ft | 376 kts | 203° |
| 2026-05-06 13:31 | 47.72384 | 15.87819 | 17388 ft | 380 kts | 203° |
| 2026-05-06 13:31 | 47.69909 | 15.86417 | 17779 ft | 383 kts | 203° |
| 2026-05-06 13:31 | 47.67409 | 15.85002 | 18163 ft | 386 kts | 202° |
| 2026-05-06 13:31 | 47.64896 | 15.83583 | 18555 ft | 387 kts | 203° |
| 2026-05-06 13:32 | 47.62373 | 15.82160 | 18975 ft | 388 kts | 202° |
| 2026-05-06 13:32 | 47.59840 | 15.80731 | 19321 ft | 391 kts | 203° |
| 2026-05-06 13:32 | 47.57325 | 15.79311 | 19746 ft | 393 kts | 203° |
| 2026-05-06 13:32 | 47.54735 | 15.77850 | 20177 ft | 394 kts | 202° |
| 2026-05-06 13:33 | 47.52200 | 15.76425 | 20600 ft | 395 kts | 203° |
| 2026-05-06 13:33 | 47.49634 | 15.74986 | 21008 ft | 397 kts | 202° |
| 2026-05-06 13:33 | 47.47035 | 15.73531 | 21395 ft | 399 kts | 203° |
| 2026-05-06 13:33 | 47.44430 | 15.72073 | 21776 ft | 402 kts | 203° |
| 2026-05-06 13:34 | 47.41809 | 15.70606 | 22169 ft | 404 kts | 203° |
| 2026-05-06 13:34 | 47.39178 | 15.69133 | 22582 ft | 406 kts | 203° |
| 2026-05-06 13:34 | 47.36533 | 15.67654 | 22955 ft | 407 kts | 203° |
| 2026-05-06 13:34 | 47.33880 | 15.66173 | 23281 ft | 409 kts | 202° |
| 2026-05-06 13:35 | 47.31210 | 15.64678 | 23579 ft | 411 kts | 202° |
| 2026-05-06 13:35 | 47.28529 | 15.63181 | 23900 ft | 413 kts | 203° |
| 2026-05-06 13:35 | 47.25833 | 15.61684 | 24187 ft | 416 kts | 203° |
| 2026-05-06 13:35 | 47.23119 | 15.60185 | 24516 ft | 417 kts | 203° |
| 2026-05-06 13:36 | 47.20396 | 15.58682 | 24845 ft | 418 kts | 203° |
| 2026-05-06 13:36 | 47.17666 | 15.57174 | 25137 ft | 420 kts | 203° |
| 2026-05-06 13:36 | 47.14926 | 15.55658 | 25438 ft | 422 kts | 203° |
| 2026-05-06 13:36 | 47.12175 | 15.54133 | 25769 ft | 423 kts | 203° |
| 2026-05-06 13:37 | 47.09422 | 15.52608 | 26055 ft | 424 kts | 203° |
| 2026-05-06 13:37 | 47.06647 | 15.51074 | 26326 ft | 426 kts | 203° |
| 2026-05-06 13:37 | 47.03867 | 15.49537 | 26591 ft | 427 kts | 203° |
| 2026-05-06 13:37 | 47.01079 | 15.47996 | 26845 ft | 429 kts | 203° |
| 2026-05-06 13:38 | 46.98319 | 15.46473 | 27080 ft | 430 kts | 203° |
| 2026-05-06 13:38 | 46.95529 | 15.44874 | 27290 ft | 430 kts | 207° |
| 2026-05-06 13:38 | 46.92880 | 15.42867 | 27552 ft | 429 kts | 211° |
| 2026-05-06 13:38 | 46.90242 | 15.40797 | 27768 ft | 430 kts | 211° |
| 2026-05-06 13:39 | 46.87604 | 15.38734 | 28028 ft | 430 kts | 211° |
| 2026-05-06 13:39 | 46.84962 | 15.36677 | 28331 ft | 429 kts | 211° |
| 2026-05-06 13:39 | 46.82336 | 15.34635 | 28624 ft | 428 kts | 211° |
| 2026-05-06 13:39 | 46.79710 | 15.32592 | 28906 ft | 427 kts | 211° |
| 2026-05-06 13:40 | 46.77093 | 15.30556 | 29171 ft | 426 kts | 211° |
| 2026-05-06 13:40 | 46.74476 | 15.28520 | 29446 ft | 425 kts | 211° |
| 2026-05-06 13:40 | 46.71866 | 15.26494 | 29699 ft | 425 kts | 211° |
| 2026-05-06 13:40 | 46.69263 | 15.24476 | 29992 ft | 424 kts | 211° |
| 2026-05-06 13:41 | 46.66691 | 15.22398 | 30228 ft | 421 kts | 215° |
| 2026-05-06 13:41 | 46.64370 | 15.19837 | 30467 ft | 418 kts | 224° |
| 2026-05-06 13:41 | 46.62384 | 15.16778 | 30711 ft | 415 kts | 232° |
| 2026-05-06 13:41 | 46.60579 | 15.13504 | 30962 ft | 414 kts | 232° |
| 2026-05-06 13:42 | 46.58772 | 15.10247 | 31238 ft | 413 kts | 231° |
| 2026-05-06 13:42 | 46.56964 | 15.07006 | 31455 ft | 412 kts | 231° |
| 2026-05-06 13:42 | 46.55153 | 15.03775 | 31712 ft | 411 kts | 231° |
| 2026-05-06 13:42 | 46.53348 | 15.00564 | 31943 ft | 410 kts | 231° |
| 2026-05-06 13:43 | 46.51545 | 14.97354 | 32216 ft | 409 kts | 231° |
| 2026-05-06 13:43 | 46.49777 | 14.94200 | 32439 ft | 408 kts | 231° |
| 2026-05-06 13:43 | 46.47985 | 14.91002 | 32699 ft | 407 kts | 231° |
| 2026-05-06 13:43 | 46.46199 | 14.87817 | 32940 ft | 406 kts | 231° |
| 2026-05-06 13:44 | 46.44417 | 14.84645 | 33219 ft | 406 kts | 231° |
| 2026-05-06 13:44 | 46.42636 | 14.81481 | 33471 ft | 404 kts | 231° |
| 2026-05-06 13:44 | 46.40857 | 14.78326 | 33695 ft | 404 kts | 231° |
| 2026-05-06 13:44 | 46.39082 | 14.75175 | 33947 ft | 403 kts | 231° |
| 2026-05-06 13:45 | 46.37307 | 14.72034 | 34168 ft | 403 kts | 231° |
| 2026-05-06 13:45 | 46.33753 | 14.65760 | 34504 ft | 403 kts | 231° |
| 2026-05-06 13:45 | 46.31976 | 14.62623 | 34683 ft | 403 kts | 231° |
| 2026-05-06 13:46 | 46.30195 | 14.59481 | 34884 ft | 404 kts | 231° |
| 2026-05-06 13:46 | 46.28414 | 14.56342 | 35079 ft | 404 kts | 231° |
| 2026-05-06 13:46 | 46.26631 | 14.53202 | 35247 ft | 404 kts | 231° |
| 2026-05-06 13:46 | 46.24848 | 14.50066 | 35473 ft | 404 kts | 230° |
| 2026-05-06 13:47 | 46.23077 | 14.46957 | 35678 ft | 403 kts | 230° |
| 2026-05-06 13:47 | 46.21319 | 14.43882 | 35862 ft | 402 kts | 230° |
| 2026-05-06 13:47 | 46.17751 | 14.37651 | 35942 ft | 402 kts | 230° |
| 2026-05-06 13:48 | 46.14191 | 14.31434 | 35953 ft | 402 kts | 230° |
| 2026-05-06 13:48 | 46.10654 | 14.25208 | 35940 ft | 401 kts | 231° |
| 2026-05-06 13:49 | 46.07173 | 14.18909 | 35937 ft | 402 kts | 231° |
| 2026-05-06 13:49 | 46.03685 | 14.12612 | 35946 ft | 403 kts | 231° |
| 2026-05-06 13:50 | 46.00179 | 14.06319 | 35944 ft | 403 kts | 231° |
| 2026-05-06 13:50 | 45.96659 | 14.00053 | 35943 ft | 403 kts | 230° |
| 2026-05-06 13:51 | 45.93158 | 13.93836 | 35983 ft | 403 kts | 231° |
| 2026-05-06 13:51 | 45.89640 | 13.87584 | 35972 ft | 402 kts | 231° |
| 2026-05-06 13:52 | 45.86126 | 13.81347 | 35970 ft | 401 kts | 230° |
| 2026-05-06 13:52 | 45.82615 | 13.75144 | 35971 ft | 400 kts | 231° |
| 2026-05-06 13:53 | 45.79098 | 13.68948 | 35963 ft | 400 kts | 231° |
| 2026-05-06 13:53 | 45.75584 | 13.62770 | 35964 ft | 400 kts | 230° |
| 2026-05-06 13:54 | 45.72121 | 13.56696 | 35955 ft | 400 kts | 230° |
| 2026-05-06 13:54 | 45.68603 | 13.50522 | 35942 ft | 401 kts | 230° |
| 2026-05-06 13:55 | 45.65084 | 13.44354 | 35935 ft | 399 kts | 230° |
| 2026-05-06 13:55 | 45.61568 | 13.38207 | 35956 ft | 399 kts | 230° |
| 2026-05-06 13:56 | 45.58069 | 13.32119 | 35939 ft | 399 kts | 230° |
| 2026-05-06 13:56 | 45.54535 | 13.25996 | 35938 ft | 400 kts | 230° |
| 2026-05-06 13:57 | 45.51601 | 13.20912 | 35934 ft | 399 kts | 230° |
| 2026-05-06 13:57 | 45.48078 | 13.14823 | 35923 ft | 399 kts | 230° |
| 2026-05-06 13:58 | 45.44547 | 13.08724 | 35921 ft | 399 kts | 230° |
| 2026-05-06 13:58 | 45.41008 | 13.02623 | 35909 ft | 399 kts | 230° |
| 2026-05-06 13:59 | 45.37460 | 12.96534 | 35912 ft | 400 kts | 230° |
| 2026-05-06 13:59 | 45.33834 | 12.90531 | 35914 ft | 400 kts | 224° |
| 2026-05-06 14:00 | 45.29162 | 12.86281 | 35916 ft | 404 kts | 204° |
| 2026-05-06 14:00 | 45.26448 | 12.85177 | 35916 ft | 409 kts | 193° |
| 2026-05-06 14:00 | 45.23664 | 12.84600 | 35915 ft | 410 kts | 192° |
| 2026-05-06 14:01 | 45.18008 | 12.83469 | 35915 ft | 411 kts | 192° |
| 2026-05-06 14:01 | 45.12348 | 12.82335 | 35918 ft | 411 kts | 192° |
| 2026-05-06 14:02 | 45.06684 | 12.81197 | 35919 ft | 411 kts | 192° |
| 2026-05-06 14:02 | 45.01149 | 12.79467 | 35914 ft | 404 kts | 205° |
| 2026-05-06 14:03 | 44.96218 | 12.75781 | 35918 ft | 401 kts | 212° |
| 2026-05-06 14:03 | 44.91373 | 12.71876 | 35918 ft | 401 kts | 212° |
| 2026-05-06 14:04 | 44.86551 | 12.68010 | 35914 ft | 401 kts | 212° |
| 2026-05-06 14:04 | 44.81697 | 12.64124 | 35932 ft | 401 kts | 212° |
| 2026-05-06 14:05 | 44.76856 | 12.60249 | 35941 ft | 400 kts | 212° |
| 2026-05-06 14:05 | 44.72017 | 12.56389 | 35936 ft | 399 kts | 212° |
| 2026-05-06 14:06 | 44.67182 | 12.52542 | 35917 ft | 399 kts | 212° |
| 2026-05-06 14:06 | 44.62355 | 12.48697 | 35918 ft | 399 kts | 212° |
| 2026-05-06 14:07 | 44.57519 | 12.44852 | 35918 ft | 399 kts | 212° |
| 2026-05-06 14:07 | 44.52681 | 12.41018 | 35921 ft | 399 kts | 212° |
| 2026-05-06 14:08 | 44.47843 | 12.37189 | 35918 ft | 399 kts | 212° |
| 2026-05-06 14:08 | 44.43009 | 12.33376 | 35920 ft | 399 kts | 212° |
| 2026-05-06 14:09 | 44.38166 | 12.29566 | 35927 ft | 399 kts | 212° |
| 2026-05-06 14:09 | 44.33327 | 12.25764 | 35928 ft | 399 kts | 212° |
| 2026-05-06 14:10 | 44.28489 | 12.21967 | 35938 ft | 398 kts | 212° |
| 2026-05-06 14:10 | 44.23697 | 12.18207 | 35904 ft | 398 kts | 212° |
| 2026-05-06 14:11 | 44.18871 | 12.14438 | 35906 ft | 397 kts | 212° |
| 2026-05-06 14:11 | 44.14044 | 12.10676 | 35911 ft | 397 kts | 212° |
| 2026-05-06 14:12 | 44.09223 | 12.06924 | 35908 ft | 397 kts | 212° |
| 2026-05-06 14:12 | 44.04399 | 12.03172 | 35942 ft | 397 kts | 211° |
| 2026-05-06 14:13 | 43.99587 | 11.99437 | 35940 ft | 395 kts | 211° |
| 2026-05-06 14:13 | 43.94783 | 11.95715 | 35893 ft | 396 kts | 212° |
| 2026-05-06 14:14 | 43.89964 | 11.91983 | 35909 ft | 397 kts | 212° |
| 2026-05-06 14:14 | 43.85138 | 11.88252 | 35931 ft | 398 kts | 212° |
| 2026-05-06 14:15 | 43.80191 | 11.84777 | 35913 ft | 402 kts | 202° |
| 2026-05-06 14:15 | 43.77456 | 11.83873 | 35911 ft | 408 kts | 191° |
| 2026-05-06 14:15 | 43.74598 | 11.83725 | 35922 ft | 415 kts | 181° |
| 2026-05-06 14:16 | 43.68891 | 11.85274 | 35930 ft | 424 kts | 173° |
| 2026-05-06 14:16 | 43.63138 | 11.87109 | 35929 ft | 424 kts | 173° |
| 2026-05-06 14:17 | 43.60261 | 11.88018 | 35809 ft | 426 kts | 173° |
| 2026-05-06 14:17 | 43.57375 | 11.88934 | 35561 ft | 425 kts | 173° |
| 2026-05-06 14:17 | 43.54490 | 11.89855 | 35306 ft | 425 kts | 173° |
| 2026-05-06 14:17 | 43.51605 | 11.90775 | 35053 ft | 425 kts | 173° |
| 2026-05-06 14:18 | 43.48719 | 11.91689 | 34805 ft | 425 kts | 174° |
| 2026-05-06 14:18 | 43.45833 | 11.92599 | 34563 ft | 425 kts | 174° |
| 2026-05-06 14:18 | 43.42952 | 11.93506 | 34317 ft | 425 kts | 174° |
| 2026-05-06 14:18 | 43.40070 | 11.94416 | 34073 ft | 425 kts | 174° |
| 2026-05-06 14:19 | 43.37193 | 11.95326 | 33649 ft | 423 kts | 174° |
| 2026-05-06 14:19 | 43.34318 | 11.96234 | 32762 ft | 424 kts | 174° |
| 2026-05-06 14:19 | 43.31445 | 11.97138 | 31950 ft | 424 kts | 174° |
| 2026-05-06 14:19 | 43.28604 | 11.98032 | 31091 ft | 425 kts | 174° |
| 2026-05-06 14:20 | 43.25719 | 11.98939 | 30251 ft | 426 kts | 174° |
| 2026-05-06 14:20 | 43.22815 | 11.99858 | 29255 ft | 428 kts | 173° |
| 2026-05-06 14:20 | 43.19914 | 12.00774 | 28288 ft | 429 kts | 173° |
| 2026-05-06 14:20 | 43.17002 | 12.01693 | 27324 ft | 430 kts | 173° |
| 2026-05-06 14:21 | 43.14079 | 12.02608 | 26296 ft | 432 kts | 173° |
| 2026-05-06 14:21 | 43.11133 | 12.03525 | 25194 ft | 437 kts | 173° |
| 2026-05-06 14:21 | 43.08177 | 12.04445 | 24466 ft | 432 kts | 173° |
| 2026-05-06 14:21 | 43.05238 | 12.05133 | 23514 ft | 427 kts | 179° |
| 2026-05-06 14:22 | 43.02304 | 12.05503 | 22298 ft | 420 kts | 179° |
| 2026-05-06 14:22 | 42.99420 | 12.05854 | 21141 ft | 411 kts | 179° |
| 2026-05-06 14:22 | 42.96599 | 12.06188 | 20060 ft | 404 kts | 179° |
| 2026-05-06 14:22 | 42.93826 | 12.06511 | 19042 ft | 396 kts | 178° |
| 2026-05-06 14:23 | 42.91108 | 12.06828 | 18037 ft | 387 kts | 178° |
| 2026-05-06 14:23 | 42.88449 | 12.07141 | 16964 ft | 380 kts | 178° |
| 2026-05-06 14:23 | 42.85844 | 12.07449 | 15945 ft | 372 kts | 178° |
| 2026-05-06 14:23 | 42.83281 | 12.07750 | 15242 ft | 367 kts | 179° |
| 2026-05-06 14:24 | 42.80743 | 12.08048 | 14781 ft | 365 kts | 179° |
| 2026-05-06 14:24 | 42.78219 | 12.08350 | 14323 ft | 363 kts | 179° |
| 2026-05-06 14:24 | 42.75734 | 12.08649 | 13857 ft | 362 kts | 179° |
| 2026-05-06 14:24 | 42.73236 | 12.08952 | 13353 ft | 359 kts | 179° |
| 2026-05-06 14:25 | 42.70752 | 12.09252 | 12852 ft | 357 kts | 179° |
| 2026-05-06 14:25 | 42.68288 | 12.09548 | 12351 ft | 355 kts | 179° |
| 2026-05-06 14:25 | 42.65838 | 12.09840 | 11821 ft | 352 kts | 179° |
| 2026-05-06 14:25 | 42.63407 | 12.10129 | 11294 ft | 349 kts | 179° |
| 2026-05-06 14:26 | 42.61026 | 12.10413 | 11051 ft | 336 kts | 179° |
| 2026-05-06 14:26 | 42.58754 | 12.10685 | 10926 ft | 320 kts | 179° |
| 2026-05-06 14:26 | 42.56589 | 12.10944 | 10798 ft | 305 kts | 180° |
| 2026-05-06 14:26 | 42.54523 | 12.11191 | 10675 ft | 292 kts | 180° |
| 2026-05-06 14:27 | 42.52539 | 12.11425 | 10541 ft | 282 kts | 180° |
| 2026-05-06 14:27 | 42.50612 | 12.11651 | 10436 ft | 276 kts | 180° |
| 2026-05-06 14:27 | 42.48700 | 12.11870 | 10366 ft | 277 kts | 179° |
| 2026-05-06 14:27 | 42.46779 | 12.12091 | 10133 ft | 276 kts | 181° |
| 2026-05-06 14:28 | 42.44877 | 12.12315 | 10016 ft | 274 kts | 180° |
| 2026-05-06 14:28 | 42.42978 | 12.12539 | 9896 ft | 275 kts | 180° |
| 2026-05-06 14:28 | 42.41078 | 12.12762 | 9765 ft | 274 kts | 179° |
| 2026-05-06 14:28 | 42.39174 | 12.12985 | 9533 ft | 274 kts | 179° |
| 2026-05-06 14:29 | 42.37275 | 12.13208 | 9171 ft | 273 kts | 178° |
| 2026-05-06 14:29 | 42.35383 | 12.13432 | 8807 ft | 273 kts | 179° |
| 2026-05-06 14:29 | 42.33499 | 12.13654 | 8438 ft | 271 kts | 178° |
| 2026-05-06 14:29 | 42.31648 | 12.13871 | 8082 ft | 271 kts | 179° |
| 2026-05-06 14:30 | 42.29772 | 12.14092 | 7717 ft | 271 kts | 179° |
| 2026-05-06 14:30 | 42.27894 | 12.14313 | 7346 ft | 271 kts | 179° |
| 2026-05-06 14:30 | 42.26028 | 12.14533 | 7041 ft | 268 kts | 179° |
| 2026-05-06 14:30 | 42.24176 | 12.14752 | 6653 ft | 265 kts | 179° |
| 2026-05-06 14:31 | 42.22346 | 12.14970 | 6264 ft | 262 kts | 179° |
| 2026-05-06 14:31 | 42.20539 | 12.15181 | 5899 ft | 260 kts | 178° |
| 2026-05-06 14:31 | 42.18748 | 12.15389 | 5532 ft | 257 kts | 177° |
| 2026-05-06 14:31 | 42.16969 | 12.15596 | 5186 ft | 255 kts | 177° |
| 2026-05-06 14:32 | 42.15214 | 12.15802 | 4845 ft | 252 kts | 178° |
| 2026-05-06 14:32 | 42.13483 | 12.16005 | 4487 ft | 248 kts | 177° |
| 2026-05-06 14:32 | 42.11781 | 12.16205 | 4157 ft | 244 kts | 176° |
| 2026-05-06 14:32 | 42.10107 | 12.16400 | 3828 ft | 239 kts | 176° |
| 2026-05-06 14:33 | 42.08464 | 12.16592 | 3507 ft | 235 kts | 177° |
| 2026-05-06 14:33 | 42.06853 | 12.16879 | 3187 ft | 233 kts | 169° |
| 2026-05-06 14:33 | 42.05323 | 12.17433 | 3077 ft | 219 kts | 166° |
| 2026-05-06 14:33 | 42.03936 | 12.18018 | 3036 ft | 200 kts | 165° |
| 2026-05-06 14:34 | 42.02673 | 12.18554 | 2976 ft | 181 kts | 165° |
| 2026-05-06 14:34 | 42.01508 | 12.19045 | 2937 ft | 172 kts | 166° |
| 2026-05-06 14:34 | 42.00375 | 12.19521 | 2881 ft | 171 kts | 165° |
| 2026-05-06 14:34 | 41.99241 | 12.19998 | 2809 ft | 171 kts | 165° |
| 2026-05-06 14:35 | 41.98110 | 12.20474 | 2740 ft | 171 kts | 164° |